<?xml version="1.0" encoding="utf-8"?>
<gpx xmlns:xsi="http://www.w3.org/2001/XMLSchema-instance" xmlns:xsd="http://www.w3.org/2001/XMLSchema" version="1.1" creator="Shapelink.com" xmlns="http://www.topografix.com/GPX/1/1" xmlns:gpxtpx="http://www.garmin.com/xmlschemas/TrackPointExtension/v1">
  <metadata>
    <name>Cykling 12.51 km, 2019-10-01</name>
    <desc></desc>
    <author><name>Henrik Staffas</name></author> 
    <time>2019-10-01T16:48:48Z</time>
  </metadata>
  <trk>
    <name>Cykling 12.51 km, 2019-10-01</name>
    <trkseg>
      <trkpt lat="59.333353251155" lon="18.018302712114">
        <ele>71.2</ele>
        <time>2019-10-01T16:48:48Z</time>
      </trkpt>
      <trkpt lat="59.333246298111" lon="18.017482878475">
        <ele>72</ele>
        <time>2019-10-01T16:49:01Z</time>
      </trkpt>
      <trkpt lat="59.333505047364" lon="18.017077948886">
        <ele>70.2</ele>
        <time>2019-10-01T16:49:09Z</time>
      </trkpt>
      <trkpt lat="59.333618789747" lon="18.016825402239">
        <ele>69.4</ele>
        <time>2019-10-01T16:49:13Z</time>
      </trkpt>
      <trkpt lat="59.33377527982" lon="18.016480738511">
        <ele>71.4</ele>
        <time>2019-10-01T16:49:18Z</time>
      </trkpt>
      <trkpt lat="59.33384065864" lon="18.016340257867">
        <ele>71.6</ele>
        <time>2019-10-01T16:49:20Z</time>
      </trkpt>
      <trkpt lat="59.33404098605" lon="18.015268715771">
        <ele>72</ele>
        <time>2019-10-01T16:49:31Z</time>
      </trkpt>
      <trkpt lat="59.334473408271" lon="18.01463261338">
        <ele>72</ele>
        <time>2019-10-01T16:49:40Z</time>
      </trkpt>
      <trkpt lat="59.334589329948" lon="18.01443228597">
        <ele>72.2</ele>
        <time>2019-10-01T16:49:43Z</time>
      </trkpt>
      <trkpt lat="59.334695193345" lon="18.014117713263">
        <ele>72.6</ele>
        <time>2019-10-01T16:49:46Z</time>
      </trkpt>
      <trkpt lat="59.335077072709" lon="18.01332419879">
        <ele>73.4</ele>
        <time>2019-10-01T16:49:58Z</time>
      </trkpt>
      <trkpt lat="59.335105906445" lon="18.013260663988">
        <ele>73.4</ele>
        <time>2019-10-01T16:49:59Z</time>
      </trkpt>
      <trkpt lat="59.33513985314" lon="18.013230824424">
        <ele>73.6</ele>
        <time>2019-10-01T16:50:00Z</time>
      </trkpt>
      <trkpt lat="59.335172710188" lon="18.013251527717">
        <ele>73.8</ele>
        <time>2019-10-01T16:50:01Z</time>
      </trkpt>
      <trkpt lat="59.33522534852" lon="18.013349009214">
        <ele>74</ele>
        <time>2019-10-01T16:50:03Z</time>
      </trkpt>
      <trkpt lat="59.335286117295" lon="18.013443473227">
        <ele>74.6</ele>
        <time>2019-10-01T16:50:05Z</time>
      </trkpt>
      <trkpt lat="59.335335654324" lon="18.013496111559">
        <ele>75.6</ele>
        <time>2019-10-01T16:50:07Z</time>
      </trkpt>
      <trkpt lat="59.335436320943" lon="18.013692667114">
        <ele>76.6</ele>
        <time>2019-10-01T16:50:12Z</time>
      </trkpt>
      <trkpt lat="59.335577975053" lon="18.013863490236">
        <ele>78</ele>
        <time>2019-10-01T16:50:16Z</time>
      </trkpt>
      <trkpt lat="59.335714767661" lon="18.013985865976">
        <ele>79</ele>
        <time>2019-10-01T16:50:19Z</time>
      </trkpt>
      <trkpt lat="59.335805962733" lon="18.014079575618">
        <ele>80</ele>
        <time>2019-10-01T16:50:21Z</time>
      </trkpt>
      <trkpt lat="59.335886764249" lon="18.014232126198">
        <ele>81.2</ele>
        <time>2019-10-01T16:50:23Z</time>
      </trkpt>
      <trkpt lat="59.336053144964" lon="18.014625321127">
        <ele>82.2</ele>
        <time>2019-10-01T16:50:28Z</time>
      </trkpt>
      <trkpt lat="59.336282641386" lon="18.014934026504">
        <ele>83.4</ele>
        <time>2019-10-01T16:50:33Z</time>
      </trkpt>
      <trkpt lat="59.336425133686" lon="18.015363766517">
        <ele>84.6</ele>
        <time>2019-10-01T16:50:38Z</time>
      </trkpt>
      <trkpt lat="59.336550191634" lon="18.015626958177">
        <ele>85.8</ele>
        <time>2019-10-01T16:50:42Z</time>
      </trkpt>
      <trkpt lat="59.336645912932" lon="18.015788142114">
        <ele>87</ele>
        <time>2019-10-01T16:50:45Z</time>
      </trkpt>
      <trkpt lat="59.336720930937" lon="18.01595779177">
        <ele>88</ele>
        <time>2019-10-01T16:50:48Z</time>
      </trkpt>
      <trkpt lat="59.33682880599" lon="18.016257109419">
        <ele>89.2</ele>
        <time>2019-10-01T16:50:52Z</time>
      </trkpt>
      <trkpt lat="59.336958138707" lon="18.016500603614">
        <ele>90.4</ele>
        <time>2019-10-01T16:50:57Z</time>
      </trkpt>
      <trkpt lat="59.337065007932" lon="18.016648125054">
        <ele>91</ele>
        <time>2019-10-01T16:51:02Z</time>
      </trkpt>
      <trkpt lat="59.337170452234" lon="18.016551649385">
        <ele>90.4</ele>
        <time>2019-10-01T16:51:05Z</time>
      </trkpt>
      <trkpt lat="59.337324679194" lon="18.016297677815">
        <ele>89.8</ele>
        <time>2019-10-01T16:51:09Z</time>
      </trkpt>
      <trkpt lat="59.337436074645" lon="18.016037922734">
        <ele>90</ele>
        <time>2019-10-01T16:51:12Z</time>
      </trkpt>
      <trkpt lat="59.33783547218" lon="18.015239379121">
        <ele>90.2</ele>
        <time>2019-10-01T16:51:22Z</time>
      </trkpt>
      <trkpt lat="59.337924236501" lon="18.015026311223">
        <ele>89</ele>
        <time>2019-10-01T16:51:24Z</time>
      </trkpt>
      <trkpt lat="59.338014928659" lon="18.014762113735">
        <ele>87.6</ele>
        <time>2019-10-01T16:51:26Z</time>
      </trkpt>
      <trkpt lat="59.338150547801" lon="18.014360536906">
        <ele>86.6</ele>
        <time>2019-10-01T16:51:29Z</time>
      </trkpt>
      <trkpt lat="59.338292537187" lon="18.013958038068">
        <ele>85.4</ele>
        <time>2019-10-01T16:51:32Z</time>
      </trkpt>
      <trkpt lat="59.338391024512" lon="18.013759554676">
        <ele>84.2</ele>
        <time>2019-10-01T16:51:34Z</time>
      </trkpt>
      <trkpt lat="59.338498145194" lon="18.013549923357">
        <ele>83.4</ele>
        <time>2019-10-01T16:51:37Z</time>
      </trkpt>
      <trkpt lat="59.338522620342" lon="18.013619409308">
        <ele>83.4</ele>
        <time>2019-10-01T16:51:38Z</time>
      </trkpt>
      <trkpt lat="59.33855128644" lon="18.013683866119">
        <ele>83</ele>
        <time>2019-10-01T16:51:39Z</time>
      </trkpt>
      <trkpt lat="59.338740214466" lon="18.014049652235">
        <ele>81.8</ele>
        <time>2019-10-01T16:51:44Z</time>
      </trkpt>
      <trkpt lat="59.338820680706" lon="18.014208824516">
        <ele>81.6</ele>
        <time>2019-10-01T16:51:46Z</time>
      </trkpt>
      <trkpt lat="59.338931992338" lon="18.014423568794">
        <ele>81</ele>
        <time>2019-10-01T16:51:49Z</time>
      </trkpt>
      <trkpt lat="59.338955545477" lon="18.014502526292">
        <ele>80.6</ele>
        <time>2019-10-01T16:51:50Z</time>
      </trkpt>
      <trkpt lat="59.338996281511" lon="18.014656166519">
        <ele>79.6</ele>
        <time>2019-10-01T16:51:52Z</time>
      </trkpt>
      <trkpt lat="59.33904330397" lon="18.014804526149">
        <ele>78.6</ele>
        <time>2019-10-01T16:51:54Z</time>
      </trkpt>
      <trkpt lat="59.339066186557" lon="18.014885579122">
        <ele>78</ele>
        <time>2019-10-01T16:51:55Z</time>
      </trkpt>
      <trkpt lat="59.339151011385" lon="18.015138293407">
        <ele>76.8</ele>
        <time>2019-10-01T16:51:58Z</time>
      </trkpt>
      <trkpt lat="59.339262658293" lon="18.015446076775">
        <ele>75.6</ele>
        <time>2019-10-01T16:52:02Z</time>
      </trkpt>
      <trkpt lat="59.33942216585" lon="18.015384721267">
        <ele>74.4</ele>
        <time>2019-10-01T16:52:05Z</time>
      </trkpt>
      <trkpt lat="59.33946994268" lon="18.015324455406">
        <ele>73.8</ele>
        <time>2019-10-01T16:52:06Z</time>
      </trkpt>
      <trkpt lat="59.339522664831" lon="18.015248012478">
        <ele>73</ele>
        <time>2019-10-01T16:52:07Z</time>
      </trkpt>
      <trkpt lat="59.339632132445" lon="18.015057827167">
        <ele>71.8</ele>
        <time>2019-10-01T16:52:09Z</time>
      </trkpt>
      <trkpt lat="59.339762890085" lon="18.014860433422">
        <ele>70.6</ele>
        <time>2019-10-01T16:52:11Z</time>
      </trkpt>
      <trkpt lat="59.339959194183" lon="18.014484169931">
        <ele>69.4</ele>
        <time>2019-10-01T16:52:14Z</time>
      </trkpt>
      <trkpt lat="59.340257170728" lon="18.013534333023">
        <ele>69.4</ele>
        <time>2019-10-01T16:52:21Z</time>
      </trkpt>
      <trkpt lat="59.340326991955" lon="18.013097300757">
        <ele>70.8</ele>
        <time>2019-10-01T16:52:25Z</time>
      </trkpt>
      <trkpt lat="59.340379295011" lon="18.012904768514">
        <ele>71.6</ele>
        <time>2019-10-01T16:52:27Z</time>
      </trkpt>
      <trkpt lat="59.340414666629" lon="18.012859170978">
        <ele>72</ele>
        <time>2019-10-01T16:52:28Z</time>
      </trkpt>
      <trkpt lat="59.340454899749" lon="18.012864954489">
        <ele>72.2</ele>
        <time>2019-10-01T16:52:29Z</time>
      </trkpt>
      <trkpt lat="59.340899391906" lon="18.012994119568">
        <ele>72.8</ele>
        <time>2019-10-01T16:52:37Z</time>
      </trkpt>
      <trkpt lat="59.340987234218" lon="18.012965704927">
        <ele>72.8</ele>
        <time>2019-10-01T16:52:39Z</time>
      </trkpt>
      <trkpt lat="59.341088403751" lon="18.012831426889">
        <ele>72</ele>
        <time>2019-10-01T16:52:42Z</time>
      </trkpt>
      <trkpt lat="59.341138359875" lon="18.012697735584">
        <ele>71.8</ele>
        <time>2019-10-01T16:52:44Z</time>
      </trkpt>
      <trkpt lat="59.341261909081" lon="18.012032799457">
        <ele>71</ele>
        <time>2019-10-01T16:52:51Z</time>
      </trkpt>
      <trkpt lat="59.341308847721" lon="18.011859126489">
        <ele>71</ele>
        <time>2019-10-01T16:52:53Z</time>
      </trkpt>
      <trkpt lat="59.341457374989" lon="18.011382028741">
        <ele>69.8</ele>
        <time>2019-10-01T16:52:58Z</time>
      </trkpt>
      <trkpt lat="59.341814192472" lon="18.010533612823">
        <ele>70.2</ele>
        <time>2019-10-01T16:53:11Z</time>
      </trkpt>
      <trkpt lat="59.341940004791" lon="18.010331525214">
        <ele>69.8</ele>
        <time>2019-10-01T16:53:13Z</time>
      </trkpt>
      <trkpt lat="59.342321967974" lon="18.009601880819">
        <ele>69.8</ele>
        <time>2019-10-01T16:53:21Z</time>
      </trkpt>
      <trkpt lat="59.342424730068" lon="18.009480343269">
        <ele>69.6</ele>
        <time>2019-10-01T16:53:23Z</time>
      </trkpt>
      <trkpt lat="59.342654477947" lon="18.009473889206">
        <ele>68.4</ele>
        <time>2019-10-01T16:53:26Z</time>
      </trkpt>
      <trkpt lat="59.342918088702" lon="18.009440361606">
        <ele>67.4</ele>
        <time>2019-10-01T16:53:29Z</time>
      </trkpt>
      <trkpt lat="59.343167785503" lon="18.009359057176">
        <ele>67</ele>
        <time>2019-10-01T16:53:32Z</time>
      </trkpt>
      <trkpt lat="59.343300722437" lon="18.009224024767">
        <ele>67</ele>
        <time>2019-10-01T16:53:34Z</time>
      </trkpt>
      <trkpt lat="59.34341530301" lon="18.00899746201">
        <ele>66.4</ele>
        <time>2019-10-01T16:53:36Z</time>
      </trkpt>
      <trkpt lat="59.343629628193" lon="18.008626395297">
        <ele>65.2</ele>
        <time>2019-10-01T16:53:40Z</time>
      </trkpt>
      <trkpt lat="59.344045957166" lon="18.007929356493">
        <ele>65.2</ele>
        <time>2019-10-01T16:53:47Z</time>
      </trkpt>
      <trkpt lat="59.344099601326" lon="18.007817625766">
        <ele>65.2</ele>
        <time>2019-10-01T16:53:48Z</time>
      </trkpt>
      <trkpt lat="59.344385172659" lon="18.007502550145">
        <ele>65.4</ele>
        <time>2019-10-01T16:53:53Z</time>
      </trkpt>
      <trkpt lat="59.344491455151" lon="18.007459886274">
        <ele>66.8</ele>
        <time>2019-10-01T16:53:55Z</time>
      </trkpt>
      <trkpt lat="59.344586757354" lon="18.007387885753">
        <ele>67.8</ele>
        <time>2019-10-01T16:53:57Z</time>
      </trkpt>
      <trkpt lat="59.344677030417" lon="18.00733281667">
        <ele>68.2</ele>
        <time>2019-10-01T16:53:59Z</time>
      </trkpt>
      <trkpt lat="59.344874759438" lon="18.007324686227">
        <ele>68.2</ele>
        <time>2019-10-01T16:54:03Z</time>
      </trkpt>
      <trkpt lat="59.345271223308" lon="18.007568515698">
        <ele>66.8</ele>
        <time>2019-10-01T16:54:10Z</time>
      </trkpt>
      <trkpt lat="59.34581252641" lon="18.007964392835">
        <ele>67.6</ele>
        <time>2019-10-01T16:54:18Z</time>
      </trkpt>
      <trkpt lat="59.345873462823" lon="18.008007140525">
        <ele>68.2</ele>
        <time>2019-10-01T16:54:19Z</time>
      </trkpt>
      <trkpt lat="59.346168170427" lon="18.008228506504">
        <ele>69.2</ele>
        <time>2019-10-01T16:54:24Z</time>
      </trkpt>
      <trkpt lat="59.346718106886" lon="18.008697809085">
        <ele>70.4</ele>
        <time>2019-10-01T16:54:32Z</time>
      </trkpt>
      <trkpt lat="59.347255386676" lon="18.009134757532">
        <ele>71</ele>
        <time>2019-10-01T16:54:39Z</time>
      </trkpt>
      <trkpt lat="59.347402405202" lon="18.009219414722">
        <ele>71.2</ele>
        <time>2019-10-01T16:54:41Z</time>
      </trkpt>
      <trkpt lat="59.347628381226" lon="18.009238441635">
        <ele>71.4</ele>
        <time>2019-10-01T16:54:44Z</time>
      </trkpt>
      <trkpt lat="59.348153507261" lon="18.008945913325">
        <ele>72.4</ele>
        <time>2019-10-01T16:54:52Z</time>
      </trkpt>
      <trkpt lat="59.348338160518" lon="18.008696970895">
        <ele>73.6</ele>
        <time>2019-10-01T16:54:56Z</time>
      </trkpt>
      <trkpt lat="59.348413178523" lon="18.008564201599">
        <ele>74.6</ele>
        <time>2019-10-01T16:54:58Z</time>
      </trkpt>
      <trkpt lat="59.348450142702" lon="18.008503013729">
        <ele>75</ele>
        <time>2019-10-01T16:54:59Z</time>
      </trkpt>
      <trkpt lat="59.348486687786" lon="18.008488010128">
        <ele>75</ele>
        <time>2019-10-01T16:55:00Z</time>
      </trkpt>
      <trkpt lat="59.348557179565" lon="18.008520448081">
        <ele>75.2</ele>
        <time>2019-10-01T16:55:02Z</time>
      </trkpt>
      <trkpt lat="59.348685171178" lon="18.008690852108">
        <ele>75</ele>
        <time>2019-10-01T16:55:05Z</time>
      </trkpt>
      <trkpt lat="59.348724482289" lon="18.008909954974">
        <ele>75.4</ele>
        <time>2019-10-01T16:55:08Z</time>
      </trkpt>
      <trkpt lat="59.348723476461" lon="18.009233580133">
        <ele>76</ele>
        <time>2019-10-01T16:55:12Z</time>
      </trkpt>
      <trkpt lat="59.348737725691" lon="18.009476990509">
        <ele>77</ele>
        <time>2019-10-01T16:55:14Z</time>
      </trkpt>
      <trkpt lat="59.348759686269" lon="18.009595175299">
        <ele>77.2</ele>
        <time>2019-10-01T16:55:15Z</time>
      </trkpt>
      <trkpt lat="59.34902447049" lon="18.010579377997">
        <ele>78</ele>
        <time>2019-10-01T16:55:25Z</time>
      </trkpt>
      <trkpt lat="59.34903955791" lon="18.010641739333">
        <ele>78.2</ele>
        <time>2019-10-01T16:55:26Z</time>
      </trkpt>
      <trkpt lat="59.349064284515" lon="18.01081801069">
        <ele>78.2</ele>
        <time>2019-10-01T16:55:28Z</time>
      </trkpt>
      <trkpt lat="59.349119688874" lon="18.011017667548">
        <ele>78.4</ele>
        <time>2019-10-01T16:55:30Z</time>
      </trkpt>
      <trkpt lat="59.349199316924" lon="18.011183377711">
        <ele>78.2</ele>
        <time>2019-10-01T16:55:32Z</time>
      </trkpt>
      <trkpt lat="59.349616987001" lon="18.011894833383">
        <ele>79</ele>
        <time>2019-10-01T16:55:41Z</time>
      </trkpt>
      <trkpt lat="59.349662500718" lon="18.011964151696">
        <ele>79.2</ele>
        <time>2019-10-01T16:55:42Z</time>
      </trkpt>
      <trkpt lat="59.349888895837" lon="18.01216917297">
        <ele>79.8</ele>
        <time>2019-10-01T16:55:47Z</time>
      </trkpt>
      <trkpt lat="59.349948072051" lon="18.012192390833">
        <ele>80.4</ele>
        <time>2019-10-01T16:55:48Z</time>
      </trkpt>
      <trkpt lat="59.350130546014" lon="18.01222952265">
        <ele>81.4</ele>
        <time>2019-10-01T16:55:51Z</time>
      </trkpt>
      <trkpt lat="59.350365323033" lon="18.012208148805">
        <ele>82.4</ele>
        <time>2019-10-01T16:55:55Z</time>
      </trkpt>
      <trkpt lat="59.3506245752" lon="18.012086695074">
        <ele>83.8</ele>
        <time>2019-10-01T16:56:00Z</time>
      </trkpt>
      <trkpt lat="59.351070240823" lon="18.011797268067">
        <ele>84.6</ele>
        <time>2019-10-01T16:56:09Z</time>
      </trkpt>
      <trkpt lat="59.351200914644" lon="18.011640610356">
        <ele>84.6</ele>
        <time>2019-10-01T16:56:12Z</time>
      </trkpt>
      <trkpt lat="59.351281464703" lon="18.011530639828">
        <ele>84.8</ele>
        <time>2019-10-01T16:56:14Z</time>
      </trkpt>
      <trkpt lat="59.351602072378" lon="18.011107018602">
        <ele>85.2</ele>
        <time>2019-10-01T16:56:21Z</time>
      </trkpt>
      <trkpt lat="59.352019155722" lon="18.010956814954">
        <ele>85.4</ele>
        <time>2019-10-01T16:56:26Z</time>
      </trkpt>
      <trkpt lat="59.352575127149" lon="18.011172648879">
        <ele>84.4</ele>
        <time>2019-10-01T16:56:34Z</time>
      </trkpt>
      <trkpt lat="59.352839743732" lon="18.011295611352">
        <ele>84</ele>
        <time>2019-10-01T16:56:38Z</time>
      </trkpt>
      <trkpt lat="59.353354140935" lon="18.011404156957">
        <ele>84.2</ele>
        <time>2019-10-01T16:56:46Z</time>
      </trkpt>
      <trkpt lat="59.353436954107" lon="18.011361660724">
        <ele>84.4</ele>
        <time>2019-10-01T16:56:48Z</time>
      </trkpt>
      <trkpt lat="59.353521695116" lon="18.011027390552">
        <ele>85.8</ele>
        <time>2019-10-01T16:56:54Z</time>
      </trkpt>
      <trkpt lat="59.353629653988" lon="18.011149598654">
        <ele>86.2</ele>
        <time>2019-10-01T16:56:58Z</time>
      </trkpt>
      <trkpt lat="59.353852277252" lon="18.0116050711">
        <ele>85</ele>
        <time>2019-10-01T16:57:04Z</time>
      </trkpt>
      <trkpt lat="59.353852612528" lon="18.011699367475">
        <ele>84.8</ele>
        <time>2019-10-01T16:57:05Z</time>
      </trkpt>
      <trkpt lat="59.353839369126" lon="18.011798944447">
        <ele>84.8</ele>
        <time>2019-10-01T16:57:06Z</time>
      </trkpt>
      <trkpt lat="59.353715317006" lon="18.011980328763">
        <ele>84.2</ele>
        <time>2019-10-01T16:57:09Z</time>
      </trkpt>
      <trkpt lat="59.353724369458" lon="18.012173783015">
        <ele>83.6</ele>
        <time>2019-10-01T16:57:11Z</time>
      </trkpt>
      <trkpt lat="59.353851941976" lon="18.012439824521">
        <ele>82.2</ele>
        <time>2019-10-01T16:57:14Z</time>
      </trkpt>
      <trkpt lat="59.353904580308" lon="18.012524649349">
        <ele>81.6</ele>
        <time>2019-10-01T16:57:15Z</time>
      </trkpt>
      <trkpt lat="59.353963840341" lon="18.012593967662">
        <ele>81</ele>
        <time>2019-10-01T16:57:16Z</time>
      </trkpt>
      <trkpt lat="59.354029051523" lon="18.012639062284">
        <ele>80.6</ele>
        <time>2019-10-01T16:57:17Z</time>
      </trkpt>
      <trkpt lat="59.354168023425" lon="18.012686587657">
        <ele>80</ele>
        <time>2019-10-01T16:57:19Z</time>
      </trkpt>
      <trkpt lat="59.354288638966" lon="18.012749116631">
        <ele>79.4</ele>
        <time>2019-10-01T16:57:21Z</time>
      </trkpt>
      <trkpt lat="59.354353598691" lon="18.012859673892">
        <ele>79</ele>
        <time>2019-10-01T16:57:23Z</time>
      </trkpt>
      <trkpt lat="59.354380001676" lon="18.012861098815">
        <ele>78.8</ele>
        <time>2019-10-01T16:57:24Z</time>
      </trkpt>
      <trkpt lat="59.354423168461" lon="18.012890938379">
        <ele>78.6</ele>
        <time>2019-10-01T16:57:25Z</time>
      </trkpt>
      <trkpt lat="59.354523248347" lon="18.012864283937">
        <ele>77.2</ele>
        <time>2019-10-01T16:57:27Z</time>
      </trkpt>
      <trkpt lat="59.354651491417" lon="18.012874509855">
        <ele>76.2</ele>
        <time>2019-10-01T16:57:28Z</time>
      </trkpt>
      <trkpt lat="59.354733214942" lon="18.012834779649">
        <ele>75.4</ele>
        <time>2019-10-01T16:57:29Z</time>
      </trkpt>
      <trkpt lat="59.354953072179" lon="18.012685665648">
        <ele>74.2</ele>
        <time>2019-10-01T16:57:32Z</time>
      </trkpt>
      <trkpt lat="59.355176030719" lon="18.012555662379">
        <ele>73.6</ele>
        <time>2019-10-01T16:57:35Z</time>
      </trkpt>
      <trkpt lat="59.355309973481" lon="18.012488942455">
        <ele>73.6</ele>
        <time>2019-10-01T16:57:37Z</time>
      </trkpt>
      <trkpt lat="59.35538884716" lon="18.012339409359">
        <ele>73.4</ele>
        <time>2019-10-01T16:57:39Z</time>
      </trkpt>
      <trkpt lat="59.355414160498" lon="18.012248633382">
        <ele>73.2</ele>
        <time>2019-10-01T16:57:40Z</time>
      </trkpt>
      <trkpt lat="59.355490016693" lon="18.011977311279">
        <ele>73.4</ele>
        <time>2019-10-01T16:57:43Z</time>
      </trkpt>
      <trkpt lat="59.355710963577" lon="18.011454951271">
        <ele>73.2</ele>
        <time>2019-10-01T16:57:50Z</time>
      </trkpt>
      <trkpt lat="59.355556820436" lon="18.011885278017">
        <ele>72</ele>
        <time>2019-10-01T16:57:57Z</time>
      </trkpt>
      <trkpt lat="59.355458752206" lon="18.012308061053">
        <ele>71</ele>
        <time>2019-10-01T16:58:01Z</time>
      </trkpt>
      <trkpt lat="59.355363366184" lon="18.012794043615">
        <ele>71.2</ele>
        <time>2019-10-01T16:58:06Z</time>
      </trkpt>
      <trkpt lat="59.355205367369" lon="18.013344985902">
        <ele>71.6</ele>
        <time>2019-10-01T16:58:12Z</time>
      </trkpt>
      <trkpt lat="59.354935889284" lon="18.014228186705">
        <ele>71.2</ele>
        <time>2019-10-01T16:58:18Z</time>
      </trkpt>
      <trkpt lat="59.354681079524" lon="18.015146507669">
        <ele>72.2</ele>
        <time>2019-10-01T16:58:26Z</time>
      </trkpt>
      <trkpt lat="59.354672781443" lon="18.015262513165">
        <ele>73.2</ele>
        <time>2019-10-01T16:58:28Z</time>
      </trkpt>
      <trkpt lat="59.354688204139" lon="18.015266117382">
        <ele>74.4</ele>
        <time>2019-10-01T16:58:33Z</time>
      </trkpt>
      <trkpt lat="59.354730532734" lon="18.015307440149">
        <ele>74</ele>
        <time>2019-10-01T16:59:01Z</time>
      </trkpt>
      <trkpt lat="59.354776800822" lon="18.015363179784">
        <ele>74</ele>
        <time>2019-10-01T16:59:03Z</time>
      </trkpt>
      <trkpt lat="59.354986767417" lon="18.015596112785">
        <ele>74</ele>
        <time>2019-10-01T16:59:09Z</time>
      </trkpt>
      <trkpt lat="59.355206037921" lon="18.015795853462">
        <ele>74.2</ele>
        <time>2019-10-01T16:59:15Z</time>
      </trkpt>
      <trkpt lat="59.355360516338" lon="18.016019566373">
        <ele>75</ele>
        <time>2019-10-01T16:59:19Z</time>
      </trkpt>
      <trkpt lat="59.355578110462" lon="18.016379736616">
        <ele>75</ele>
        <time>2019-10-01T16:59:27Z</time>
      </trkpt>
      <trkpt lat="59.35607197201" lon="18.016536059051">
        <ele>75.6</ele>
        <time>2019-10-01T16:59:36Z</time>
      </trkpt>
      <trkpt lat="59.356250422661" lon="18.016618620766">
        <ele>76.8</ele>
        <time>2019-10-01T16:59:40Z</time>
      </trkpt>
      <trkpt lat="59.356835144005" lon="18.016727753104">
        <ele>76.8</ele>
        <time>2019-10-01T16:59:46Z</time>
      </trkpt>
      <trkpt lat="59.357432941113" lon="18.016959261182">
        <ele>75.8</ele>
        <time>2019-10-01T16:59:53Z</time>
      </trkpt>
      <trkpt lat="59.358049429858" lon="18.017154056538">
        <ele>77</ele>
        <time>2019-10-01T17:00:01Z</time>
      </trkpt>
      <trkpt lat="59.35843985876" lon="18.017224045403">
        <ele>77.8</ele>
        <time>2019-10-01T17:00:06Z</time>
      </trkpt>
      <trkpt lat="59.358996752196" lon="18.017333429198">
        <ele>78.8</ele>
        <time>2019-10-01T17:00:13Z</time>
      </trkpt>
      <trkpt lat="59.359222225306" lon="18.017378859096">
        <ele>79</ele>
        <time>2019-10-01T17:00:16Z</time>
      </trkpt>
      <trkpt lat="59.35980946122" lon="18.017430659238">
        <ele>79.6</ele>
        <time>2019-10-01T17:00:24Z</time>
      </trkpt>
      <trkpt lat="59.359994868848" lon="18.017413224886">
        <ele>80</ele>
        <time>2019-10-01T17:00:27Z</time>
      </trkpt>
      <trkpt lat="59.3602050869" lon="18.017398472742">
        <ele>81.4</ele>
        <time>2019-10-01T17:00:31Z</time>
      </trkpt>
      <trkpt lat="59.360653183274" lon="18.017361005649">
        <ele>82.8</ele>
        <time>2019-10-01T17:00:39Z</time>
      </trkpt>
      <trkpt lat="59.360766422743" lon="18.017354970681">
        <ele>84</ele>
        <time>2019-10-01T17:00:42Z</time>
      </trkpt>
      <trkpt lat="59.360939425159" lon="18.017304595462">
        <ele>84.4</ele>
        <time>2019-10-01T17:00:48Z</time>
      </trkpt>
      <trkpt lat="59.361116534706" lon="18.017281964332">
        <ele>85.2</ele>
        <time>2019-10-01T17:00:52Z</time>
      </trkpt>
      <trkpt lat="59.361187613218" lon="18.017288921309">
        <ele>86.8</ele>
        <time>2019-10-01T17:00:54Z</time>
      </trkpt>
      <trkpt lat="59.361341923997" lon="18.017284311264">
        <ele>87.8</ele>
        <time>2019-10-01T17:00:57Z</time>
      </trkpt>
      <trkpt lat="59.361565636908" lon="18.017225889421">
        <ele>89.4</ele>
        <time>2019-10-01T17:01:03Z</time>
      </trkpt>
      <trkpt lat="59.361635374316" lon="18.017172831994">
        <ele>90.4</ele>
        <time>2019-10-01T17:01:05Z</time>
      </trkpt>
      <trkpt lat="59.361730760338" lon="18.017037799585">
        <ele>91.6</ele>
        <time>2019-10-01T17:01:08Z</time>
      </trkpt>
      <trkpt lat="59.361795887701" lon="18.016993878429">
        <ele>92.8</ele>
        <time>2019-10-01T17:01:10Z</time>
      </trkpt>
      <trkpt lat="59.362079363559" lon="18.016823725859">
        <ele>92.4</ele>
        <time>2019-10-01T17:01:17Z</time>
      </trkpt>
      <trkpt lat="59.362133426814" lon="18.016805788593">
        <ele>91.8</ele>
        <time>2019-10-01T17:01:18Z</time>
      </trkpt>
      <trkpt lat="59.36218489168" lon="18.016769830242">
        <ele>91.4</ele>
        <time>2019-10-01T17:01:19Z</time>
      </trkpt>
      <trkpt lat="59.362233674338" lon="18.016733536615">
        <ele>90.8</ele>
        <time>2019-10-01T17:01:20Z</time>
      </trkpt>
      <trkpt lat="59.362335598242" lon="18.016620045689">
        <ele>89.6</ele>
        <time>2019-10-01T17:01:22Z</time>
      </trkpt>
      <trkpt lat="59.362502649509" lon="18.016384095204">
        <ele>89</ele>
        <time>2019-10-01T17:01:25Z</time>
      </trkpt>
      <trkpt lat="59.36271211319" lon="18.016280578739">
        <ele>88.8</ele>
        <time>2019-10-01T17:01:28Z</time>
      </trkpt>
      <trkpt lat="59.36286550196" lon="18.016195670092">
        <ele>88.6</ele>
        <time>2019-10-01T17:01:30Z</time>
      </trkpt>
      <trkpt lat="59.362945716743" lon="18.016181839957">
        <ele>88.6</ele>
        <time>2019-10-01T17:01:31Z</time>
      </trkpt>
      <trkpt lat="59.363502945455" lon="18.015933651898">
        <ele>87.8</ele>
        <time>2019-10-01T17:01:41Z</time>
      </trkpt>
      <trkpt lat="59.363495653202" lon="18.015972208638">
        <ele>87.6</ele>
        <time>2019-10-01T17:01:42Z</time>
      </trkpt>
      <trkpt lat="59.363522223825" lon="18.01606843285">
        <ele>87.4</ele>
        <time>2019-10-01T17:01:44Z</time>
      </trkpt>
      <trkpt lat="59.363548794448" lon="18.016115203852">
        <ele>87.4</ele>
        <time>2019-10-01T17:01:45Z</time>
      </trkpt>
      <trkpt lat="59.363675947871" lon="18.016181085586">
        <ele>87</ele>
        <time>2019-10-01T17:01:48Z</time>
      </trkpt>
      <trkpt lat="59.363741494329" lon="18.016304718611">
        <ele>86.8</ele>
        <time>2019-10-01T17:01:50Z</time>
      </trkpt>
      <trkpt lat="59.363786840408" lon="18.016453832612">
        <ele>86.4</ele>
        <time>2019-10-01T17:01:52Z</time>
      </trkpt>
      <trkpt lat="59.363908713234" lon="18.016645275208">
        <ele>85.6</ele>
        <time>2019-10-01T17:01:57Z</time>
      </trkpt>
      <trkpt lat="59.364085990419" lon="18.016605545002">
        <ele>86</ele>
        <time>2019-10-01T17:02:01Z</time>
      </trkpt>
      <trkpt lat="59.364241642302" lon="18.01631318433">
        <ele>84.8</ele>
        <time>2019-10-01T17:02:06Z</time>
      </trkpt>
      <trkpt lat="59.364281288689" lon="18.016083352632">
        <ele>84</ele>
        <time>2019-10-01T17:02:08Z</time>
      </trkpt>
      <trkpt lat="59.364298639222" lon="18.016011855025">
        <ele>83.6</ele>
        <time>2019-10-01T17:02:09Z</time>
      </trkpt>
      <trkpt lat="59.364387571181" lon="18.015588401437">
        <ele>83.2</ele>
        <time>2019-10-01T17:02:13Z</time>
      </trkpt>
      <trkpt lat="59.364402323325" lon="18.015218340552">
        <ele>82.2</ele>
        <time>2019-10-01T17:02:16Z</time>
      </trkpt>
      <trkpt lat="59.364414225623" lon="18.015005775568">
        <ele>81.4</ele>
        <time>2019-10-01T17:02:18Z</time>
      </trkpt>
      <trkpt lat="59.364423864808" lon="18.014902007646">
        <ele>80.8</ele>
        <time>2019-10-01T17:02:19Z</time>
      </trkpt>
      <trkpt lat="59.364440125694" lon="18.014799329371">
        <ele>80.4</ele>
        <time>2019-10-01T17:02:20Z</time>
      </trkpt>
      <trkpt lat="59.364523106504" lon="18.014726909755">
        <ele>79.8</ele>
        <time>2019-10-01T17:02:22Z</time>
      </trkpt>
      <trkpt lat="59.364603824201" lon="18.014613754105">
        <ele>78.6</ele>
        <time>2019-10-01T17:02:25Z</time>
      </trkpt>
      <trkpt lat="59.364682614061" lon="18.014617861236">
        <ele>78.4</ele>
        <time>2019-10-01T17:02:27Z</time>
      </trkpt>
      <trkpt lat="59.364832650071" lon="18.014752726007">
        <ele>78.2</ele>
        <time>2019-10-01T17:02:30Z</time>
      </trkpt>
      <trkpt lat="59.365028451255" lon="18.014890021529">
        <ele>78.2</ele>
        <time>2019-10-01T17:02:32Z</time>
      </trkpt>
      <trkpt lat="59.365402786909" lon="18.014737890044">
        <ele>77.6</ele>
        <time>2019-10-01T17:02:37Z</time>
      </trkpt>
      <trkpt lat="59.365455928155" lon="18.014667482084">
        <ele>77.6</ele>
        <time>2019-10-01T17:02:38Z</time>
      </trkpt>
      <trkpt lat="59.365508147392" lon="18.014606797128">
        <ele>77.2</ele>
        <time>2019-10-01T17:02:39Z</time>
      </trkpt>
      <trkpt lat="59.365650555873" lon="18.014486349225">
        <ele>76.4</ele>
        <time>2019-10-01T17:02:42Z</time>
      </trkpt>
      <trkpt lat="59.366060095507" lon="18.013843206038">
        <ele>76.8</ele>
        <time>2019-10-01T17:02:51Z</time>
      </trkpt>
      <trkpt lat="59.366195547011" lon="18.013575236695">
        <ele>77</ele>
        <time>2019-10-01T17:02:54Z</time>
      </trkpt>
      <trkpt lat="59.366285149522" lon="18.013452358041">
        <ele>77.6</ele>
        <time>2019-10-01T17:02:56Z</time>
      </trkpt>
      <trkpt lat="59.366722349426" lon="18.012755486875">
        <ele>77.8</ele>
        <time>2019-10-01T17:03:05Z</time>
      </trkpt>
      <trkpt lat="59.366992581882" lon="18.012238407464">
        <ele>77.6</ele>
        <time>2019-10-01T17:03:11Z</time>
      </trkpt>
      <trkpt lat="59.367242111045" lon="18.011810176193">
        <ele>76.6</ele>
        <time>2019-10-01T17:03:16Z</time>
      </trkpt>
      <trkpt lat="59.367594318483" lon="18.011423602965">
        <ele>75.4</ele>
        <time>2019-10-01T17:03:21Z</time>
      </trkpt>
      <trkpt lat="59.367775786618" lon="18.011208271954">
        <ele>74.8</ele>
        <time>2019-10-01T17:03:25Z</time>
      </trkpt>
      <trkpt lat="59.36782088124" lon="18.011161752409">
        <ele>74.2</ele>
        <time>2019-10-01T17:03:26Z</time>
      </trkpt>
      <trkpt lat="59.367892714123" lon="18.011071227889">
        <ele>72.6</ele>
        <time>2019-10-01T17:03:28Z</time>
      </trkpt>
      <trkpt lat="59.367862706921" lon="18.011050524596">
        <ele>71.8</ele>
        <time>2019-10-01T17:03:29Z</time>
      </trkpt>
      <trkpt lat="59.367889529001" lon="18.011052620071">
        <ele>71.4</ele>
        <time>2019-10-01T17:03:30Z</time>
      </trkpt>
      <trkpt lat="59.368004863945" lon="18.011099726349">
        <ele>70.8</ele>
        <time>2019-10-01T17:03:33Z</time>
      </trkpt>
      <trkpt lat="59.36810586584" lon="18.01099067783">
        <ele>70.6</ele>
        <time>2019-10-01T17:03:35Z</time>
      </trkpt>
      <trkpt lat="59.368197060912" lon="18.010884060062">
        <ele>70.6</ele>
        <time>2019-10-01T17:03:37Z</time>
      </trkpt>
      <trkpt lat="59.368293285124" lon="18.010384247365">
        <ele>71</ele>
        <time>2019-10-01T17:03:41Z</time>
      </trkpt>
      <trkpt lat="59.368356149374" lon="18.010226164731">
        <ele>71.8</ele>
        <time>2019-10-01T17:03:43Z</time>
      </trkpt>
      <trkpt lat="59.368435106872" lon="18.010112422348">
        <ele>72</ele>
        <time>2019-10-01T17:03:45Z</time>
      </trkpt>
      <trkpt lat="59.368511465981" lon="18.010011168996">
        <ele>72.4</ele>
        <time>2019-10-01T17:03:48Z</time>
      </trkpt>
      <trkpt lat="59.368609031297" lon="18.009722663998">
        <ele>72.8</ele>
        <time>2019-10-01T17:03:53Z</time>
      </trkpt>
      <trkpt lat="59.368683127293" lon="18.009564246088">
        <ele>72.6</ele>
        <time>2019-10-01T17:03:55Z</time>
      </trkpt>
      <trkpt lat="59.369151004951" lon="18.008875002451">
        <ele>72.8</ele>
        <time>2019-10-01T17:04:03Z</time>
      </trkpt>
      <trkpt lat="59.369511426651" lon="18.008619103044">
        <ele>73.6</ele>
        <time>2019-10-01T17:04:08Z</time>
      </trkpt>
      <trkpt lat="59.37007309777" lon="18.008410980467">
        <ele>73</ele>
        <time>2019-10-01T17:04:15Z</time>
      </trkpt>
      <trkpt lat="59.370307707151" lon="18.008381140903">
        <ele>72.2</ele>
        <time>2019-10-01T17:04:18Z</time>
      </trkpt>
      <trkpt lat="59.370611299569" lon="18.008192548153">
        <ele>71</ele>
        <time>2019-10-01T17:04:22Z</time>
      </trkpt>
      <trkpt lat="59.370821349983" lon="18.008060197952">
        <ele>69.4</ele>
        <time>2019-10-01T17:04:25Z</time>
      </trkpt>
      <trkpt lat="59.370963087912" lon="18.007991047277">
        <ele>68</ele>
        <time>2019-10-01T17:04:27Z</time>
      </trkpt>
      <trkpt lat="59.371035926623" lon="18.007973277649">
        <ele>67.6</ele>
        <time>2019-10-01T17:04:28Z</time>
      </trkpt>
      <trkpt lat="59.37132619182" lon="18.007960201885">
        <ele>67.6</ele>
        <time>2019-10-01T17:04:32Z</time>
      </trkpt>
      <trkpt lat="59.371873697528" lon="18.007802705984">
        <ele>66.8</ele>
        <time>2019-10-01T17:04:40Z</time>
      </trkpt>
      <trkpt lat="59.372136218636" lon="18.007669098498">
        <ele>68</ele>
        <time>2019-10-01T17:04:44Z</time>
      </trkpt>
      <trkpt lat="59.372266305724" lon="18.007586369145">
        <ele>69.2</ele>
        <time>2019-10-01T17:04:46Z</time>
      </trkpt>
      <trkpt lat="59.372379545193" lon="18.00754068779">
        <ele>69.8</ele>
        <time>2019-10-01T17:04:48Z</time>
      </trkpt>
      <trkpt lat="59.372512565946" lon="18.007536077745">
        <ele>70.2</ele>
        <time>2019-10-01T17:04:51Z</time>
      </trkpt>
      <trkpt lat="59.372619435171" lon="18.007464244862">
        <ele>69.6</ele>
        <time>2019-10-01T17:04:54Z</time>
      </trkpt>
      <trkpt lat="59.372691100416" lon="18.007357040361">
        <ele>69</ele>
        <time>2019-10-01T17:04:56Z</time>
      </trkpt>
      <trkpt lat="59.372802412048" lon="18.007244303806">
        <ele>68</ele>
        <time>2019-10-01T17:04:58Z</time>
      </trkpt>
      <trkpt lat="59.372972816075" lon="18.007147744318">
        <ele>67.4</ele>
        <time>2019-10-01T17:05:01Z</time>
      </trkpt>
      <trkpt lat="59.373087899562" lon="18.007095189805">
        <ele>67.4</ele>
        <time>2019-10-01T17:05:03Z</time>
      </trkpt>
      <trkpt lat="59.373195942253" lon="18.006993852634">
        <ele>67.2</ele>
        <time>2019-10-01T17:05:05Z</time>
      </trkpt>
      <trkpt lat="59.373259309417" lon="18.006906010322">
        <ele>66.8</ele>
        <time>2019-10-01T17:05:06Z</time>
      </trkpt>
      <trkpt lat="59.373755517897" lon="18.00630016659">
        <ele>66.4</ele>
        <time>2019-10-01T17:05:13Z</time>
      </trkpt>
      <trkpt lat="59.373823914201" lon="18.006243672584">
        <ele>66.4</ele>
        <time>2019-10-01T17:05:14Z</time>
      </trkpt>
      <trkpt lat="59.374323307803" lon="18.005844945601">
        <ele>66.2</ele>
        <time>2019-10-01T17:05:21Z</time>
      </trkpt>
      <trkpt lat="59.374528496715" lon="18.005659202697">
        <ele>68</ele>
        <time>2019-10-01T17:05:24Z</time>
      </trkpt>
      <trkpt lat="59.374716502732" lon="18.005500617149">
        <ele>69.2</ele>
        <time>2019-10-01T17:05:27Z</time>
      </trkpt>
      <trkpt lat="59.375245065346" lon="18.005112283722">
        <ele>70</ele>
        <time>2019-10-01T17:05:36Z</time>
      </trkpt>
      <trkpt lat="59.37540817712" lon="18.004980184978">
        <ele>70.2</ele>
        <time>2019-10-01T17:05:39Z</time>
      </trkpt>
      <trkpt lat="59.375954509362" lon="18.004557318123">
        <ele>70</ele>
        <time>2019-10-01T17:05:49Z</time>
      </trkpt>
      <trkpt lat="59.3760636417" lon="18.004475343141">
        <ele>70.2</ele>
        <time>2019-10-01T17:05:51Z</time>
      </trkpt>
      <trkpt lat="59.376614416349" lon="18.004128500119">
        <ele>71</ele>
        <time>2019-10-01T17:06:01Z</time>
      </trkpt>
      <trkpt lat="59.376769649137" lon="18.004040322531">
        <ele>70.4</ele>
        <time>2019-10-01T17:06:04Z</time>
      </trkpt>
      <trkpt lat="59.376932257997" lon="18.003973183512">
        <ele>71.8</ele>
        <time>2019-10-01T17:06:07Z</time>
      </trkpt>
      <trkpt lat="59.376976933524" lon="18.003943343948">
        <ele>72.4</ele>
        <time>2019-10-01T17:06:08Z</time>
      </trkpt>
      <trkpt lat="59.377017334282" lon="18.003910989814">
        <ele>73</ele>
        <time>2019-10-01T17:06:09Z</time>
      </trkpt>
      <trkpt lat="59.37707366065" lon="18.00385935731">
        <ele>74.2</ele>
        <time>2019-10-01T17:06:12Z</time>
      </trkpt>
      <trkpt lat="59.377122610946" lon="18.003926663967">
        <ele>75</ele>
        <time>2019-10-01T17:06:15Z</time>
      </trkpt>
      <trkpt lat="59.377178266762" lon="18.003836809999">
        <ele>75.4</ele>
        <time>2019-10-01T17:06:16Z</time>
      </trkpt>
      <trkpt lat="59.377239286994" lon="18.003749051506">
        <ele>75.8</ele>
        <time>2019-10-01T17:06:17Z</time>
      </trkpt>
      <trkpt lat="59.377355627766" lon="18.003627262499">
        <ele>76.4</ele>
        <time>2019-10-01T17:06:19Z</time>
      </trkpt>
      <trkpt lat="59.377891482633" lon="18.003251501922">
        <ele>77</ele>
        <time>2019-10-01T17:06:30Z</time>
      </trkpt>
      <trkpt lat="59.377940768205" lon="18.003218477236">
        <ele>77.2</ele>
        <time>2019-10-01T17:06:31Z</time>
      </trkpt>
      <trkpt lat="59.378027604689" lon="18.003123510309">
        <ele>77.6</ele>
        <time>2019-10-01T17:06:33Z</time>
      </trkpt>
      <trkpt lat="59.378143861642" lon="18.002982862027">
        <ele>78.2</ele>
        <time>2019-10-01T17:06:36Z</time>
      </trkpt>
      <trkpt lat="59.37834100393" lon="18.00276635755">
        <ele>78.8</ele>
        <time>2019-10-01T17:06:41Z</time>
      </trkpt>
      <trkpt lat="59.378886414163" lon="18.002413228103">
        <ele>78.8</ele>
        <time>2019-10-01T17:06:51Z</time>
      </trkpt>
      <trkpt lat="59.37937365401" lon="18.002023302115">
        <ele>77.6</ele>
        <time>2019-10-01T17:06:58Z</time>
      </trkpt>
      <trkpt lat="59.379696943893" lon="18.001726499036">
        <ele>76.6</ele>
        <time>2019-10-01T17:07:02Z</time>
      </trkpt>
      <trkpt lat="59.380266745455" lon="18.001393737606">
        <ele>75.6</ele>
        <time>2019-10-01T17:07:11Z</time>
      </trkpt>
      <trkpt lat="59.38039876038" lon="18.001356270513">
        <ele>75.2</ele>
        <time>2019-10-01T17:07:13Z</time>
      </trkpt>
      <trkpt lat="59.380517867179" lon="18.001378985462">
        <ele>74.6</ele>
        <time>2019-10-01T17:07:15Z</time>
      </trkpt>
      <trkpt lat="59.380575199375" lon="18.001389462837">
        <ele>74.4</ele>
        <time>2019-10-01T17:07:16Z</time>
      </trkpt>
      <trkpt lat="59.380805450168" lon="18.001430534147">
        <ele>73</ele>
        <time>2019-10-01T17:07:20Z</time>
      </trkpt>
      <trkpt lat="59.381062020127" lon="18.001554083353">
        <ele>72</ele>
        <time>2019-10-01T17:07:25Z</time>
      </trkpt>
      <trkpt lat="59.381144581842" lon="18.001606637866">
        <ele>71.8</ele>
        <time>2019-10-01T17:07:27Z</time>
      </trkpt>
      <trkpt lat="59.381347340003" lon="18.001636980344">
        <ele>71.2</ele>
        <time>2019-10-01T17:07:30Z</time>
      </trkpt>
      <trkpt lat="59.381434847039" lon="18.001553748077">
        <ele>71</ele>
        <time>2019-10-01T17:07:32Z</time>
      </trkpt>
      <trkpt lat="59.381575830597" lon="18.001178406595">
        <ele>70.4</ele>
        <time>2019-10-01T17:07:36Z</time>
      </trkpt>
      <trkpt lat="59.381611202215" lon="18.000847573002">
        <ele>70.4</ele>
        <time>2019-10-01T17:07:40Z</time>
      </trkpt>
      <trkpt lat="59.381608352369" lon="18.000579603659">
        <ele>70.6</ele>
        <time>2019-10-01T17:07:42Z</time>
      </trkpt>
      <trkpt lat="59.381727375349" lon="18.000255056491">
        <ele>72.6</ele>
        <time>2019-10-01T17:07:45Z</time>
      </trkpt>
      <trkpt lat="59.382163066511" lon="17.99975557907">
        <ele>73.6</ele>
        <time>2019-10-01T17:07:52Z</time>
      </trkpt>
      <trkpt lat="59.382386276508" lon="17.999465313873">
        <ele>73.8</ele>
        <time>2019-10-01T17:07:56Z</time>
      </trkpt>
      <trkpt lat="59.382732448978" lon="17.999402114347">
        <ele>73.6</ele>
        <time>2019-10-01T17:07:58Z</time>
      </trkpt>
      <trkpt lat="59.382950126921" lon="17.999053511126">
        <ele>73.4</ele>
        <time>2019-10-01T17:08:02Z</time>
      </trkpt>
      <trkpt lat="59.383055990318" lon="17.998873887009">
        <ele>73</ele>
        <time>2019-10-01T17:08:04Z</time>
      </trkpt>
      <trkpt lat="59.383172834004" lon="17.998734998926">
        <ele>72.2</ele>
        <time>2019-10-01T17:08:06Z</time>
      </trkpt>
      <trkpt lat="59.383348434809" lon="17.998558392293">
        <ele>71</ele>
        <time>2019-10-01T17:08:09Z</time>
      </trkpt>
      <trkpt lat="59.383612045564" lon="17.998257649721">
        <ele>69.8</ele>
        <time>2019-10-01T17:08:14Z</time>
      </trkpt>
      <trkpt lat="59.383755962787" lon="17.998062602908">
        <ele>69.8</ele>
        <time>2019-10-01T17:08:17Z</time>
      </trkpt>
      <trkpt lat="59.383861490908" lon="17.997968138895">
        <ele>70.2</ele>
        <time>2019-10-01T17:08:19Z</time>
      </trkpt>
      <trkpt lat="59.383969533599" lon="17.997917596038">
        <ele>71</ele>
        <time>2019-10-01T17:08:21Z</time>
      </trkpt>
      <trkpt lat="59.384130968993" lon="17.997901921885">
        <ele>72.2</ele>
        <time>2019-10-01T17:08:24Z</time>
      </trkpt>
      <trkpt lat="59.384282262288" lon="17.997910219966">
        <ele>73.6</ele>
        <time>2019-10-01T17:08:27Z</time>
      </trkpt>
      <trkpt lat="59.384760952597" lon="17.997884403714">
        <ele>74.6</ele>
        <time>2019-10-01T17:08:36Z</time>
      </trkpt>
      <trkpt lat="59.385323881001" lon="17.997864203335">
        <ele>74.2</ele>
        <time>2019-10-01T17:08:47Z</time>
      </trkpt>
      <trkpt lat="59.385746999313" lon="17.997837716531">
        <ele>75.6</ele>
        <time>2019-10-01T17:08:55Z</time>
      </trkpt>
      <trkpt lat="59.386047574247" lon="17.997805027121">
        <ele>76.8</ele>
        <time>2019-10-01T17:09:01Z</time>
      </trkpt>
      <trkpt lat="59.386348819733" lon="17.997780551973">
        <ele>78</ele>
        <time>2019-10-01T17:09:07Z</time>
      </trkpt>
      <trkpt lat="59.386552164627" lon="17.997750963866">
        <ele>79.2</ele>
        <time>2019-10-01T17:09:12Z</time>
      </trkpt>
      <trkpt lat="59.386714941125" lon="17.997731266401">
        <ele>80.4</ele>
        <time>2019-10-01T17:09:17Z</time>
      </trkpt>
      <trkpt lat="59.387238558418" lon="17.997739983577">
        <ele>81.6</ele>
        <time>2019-10-01T17:09:29Z</time>
      </trkpt>
      <trkpt lat="59.387403430391" lon="17.997780971068">
        <ele>82.8</ele>
        <time>2019-10-01T17:09:33Z</time>
      </trkpt>
      <trkpt lat="59.387434443421" lon="17.997853139227">
        <ele>83</ele>
        <time>2019-10-01T17:09:35Z</time>
      </trkpt>
      <trkpt lat="59.387495044558" lon="17.998548166375">
        <ele>81.6</ele>
        <time>2019-10-01T17:09:45Z</time>
      </trkpt>
      <trkpt lat="59.387563189405" lon="17.998705327">
        <ele>80.8</ele>
        <time>2019-10-01T17:09:47Z</time>
      </trkpt>
      <trkpt lat="59.38759881248" lon="17.998725527379">
        <ele>80.6</ele>
        <time>2019-10-01T17:09:48Z</time>
      </trkpt>
      <trkpt lat="59.387636028116" lon="17.99872041442">
        <ele>80.4</ele>
        <time>2019-10-01T17:09:49Z</time>
      </trkpt>
      <trkpt lat="59.388186886584" lon="17.998870869525">
        <ele>82</ele>
        <time>2019-10-01T17:09:56Z</time>
      </trkpt>
      <trkpt lat="59.388344466304" lon="17.998744386654">
        <ele>83.2</ele>
        <time>2019-10-01T17:10:00Z</time>
      </trkpt>
      <trkpt lat="59.388545548085" lon="17.998519332639">
        <ele>82.8</ele>
        <time>2019-10-01T17:10:04Z</time>
      </trkpt>
      <trkpt lat="59.388640179736" lon="17.998463509185">
        <ele>81.8</ele>
        <time>2019-10-01T17:10:06Z</time>
      </trkpt>
      <trkpt lat="59.388802537139" lon="17.998348677155">
        <ele>80.2</ele>
        <time>2019-10-01T17:10:08Z</time>
      </trkpt>
      <trkpt lat="59.388911669477" lon="17.998191265073">
        <ele>79</ele>
        <time>2019-10-01T17:10:09Z</time>
      </trkpt>
      <trkpt lat="59.389004708567" lon="17.998038630674">
        <ele>77.8</ele>
        <time>2019-10-01T17:10:10Z</time>
      </trkpt>
      <trkpt lat="59.389083666065" lon="17.997905023188">
        <ele>76.6</ele>
        <time>2019-10-01T17:10:11Z</time>
      </trkpt>
      <trkpt lat="59.38924753221" lon="17.997663205373">
        <ele>75</ele>
        <time>2019-10-01T17:10:13Z</time>
      </trkpt>
      <trkpt lat="59.389466048343" lon="17.99734243006">
        <ele>74</ele>
        <time>2019-10-01T17:10:16Z</time>
      </trkpt>
      <trkpt lat="59.389565038582" lon="17.997198931932">
        <ele>73.6</ele>
        <time>2019-10-01T17:10:17Z</time>
      </trkpt>
      <trkpt lat="59.389725216691" lon="17.997035987796">
        <ele>72.2</ele>
        <time>2019-10-01T17:10:19Z</time>
      </trkpt>
      <trkpt lat="59.389891597406" lon="17.996880503551">
        <ele>70.8</ele>
        <time>2019-10-01T17:10:21Z</time>
      </trkpt>
      <trkpt lat="59.389975500225" lon="17.99676240258">
        <ele>70.4</ele>
        <time>2019-10-01T17:10:22Z</time>
      </trkpt>
      <trkpt lat="59.390156633084" lon="17.996395945912">
        <ele>69.8</ele>
        <time>2019-10-01T17:10:24Z</time>
      </trkpt>
      <trkpt lat="59.39040423441" lon="17.995681640394">
        <ele>68.4</ele>
        <time>2019-10-01T17:10:28Z</time>
      </trkpt>
      <trkpt lat="59.39066072055" lon="17.99474655563">
        <ele>68.6</ele>
        <time>2019-10-01T17:10:34Z</time>
      </trkpt>
      <trkpt lat="59.390769601431" lon="17.994355875271">
        <ele>69.6</ele>
        <time>2019-10-01T17:10:37Z</time>
      </trkpt>
      <trkpt lat="59.391050897995" lon="17.993415090815">
        <ele>69.8</ele>
        <time>2019-10-01T17:10:44Z</time>
      </trkpt>
      <trkpt lat="59.391325824315" lon="17.992526441777">
        <ele>70.8</ele>
        <time>2019-10-01T17:10:53Z</time>
      </trkpt>
      <trkpt lat="59.391638133909" lon="17.991654221263">
        <ele>71.4</ele>
        <time>2019-10-01T17:11:01Z</time>
      </trkpt>
      <trkpt lat="59.391692783897" lon="17.991461605201">
        <ele>71.8</ele>
        <time>2019-10-01T17:11:03Z</time>
      </trkpt>
      <trkpt lat="59.391799066389" lon="17.991069080824">
        <ele>72.8</ele>
        <time>2019-10-01T17:11:07Z</time>
      </trkpt>
      <trkpt lat="59.391878945896" lon="17.990780994921">
        <ele>74</ele>
        <time>2019-10-01T17:11:10Z</time>
      </trkpt>
      <trkpt lat="59.392011379916" lon="17.990334574927">
        <ele>75</ele>
        <time>2019-10-01T17:11:15Z</time>
      </trkpt>
      <trkpt lat="59.392150267999" lon="17.989780447518">
        <ele>76.2</ele>
        <time>2019-10-01T17:11:21Z</time>
      </trkpt>
      <trkpt lat="59.392296615973" lon="17.989105620749">
        <ele>77</ele>
        <time>2019-10-01T17:11:28Z</time>
      </trkpt>
      <trkpt lat="59.392386386122" lon="17.988799178485">
        <ele>77</ele>
        <time>2019-10-01T17:11:32Z</time>
      </trkpt>
      <trkpt lat="59.392424356129" lon="17.988595414496">
        <ele>77.4</ele>
        <time>2019-10-01T17:11:34Z</time>
      </trkpt>
      <trkpt lat="59.392506917844" lon="17.988319063253">
        <ele>78.6</ele>
        <time>2019-10-01T17:11:37Z</time>
      </trkpt>
      <trkpt lat="59.392714956602" lon="17.987905332669">
        <ele>79.6</ele>
        <time>2019-10-01T17:11:43Z</time>
      </trkpt>
      <trkpt lat="59.39288443862" lon="17.987663431035">
        <ele>80.2</ele>
        <time>2019-10-01T17:11:47Z</time>
      </trkpt>
      <trkpt lat="59.39342088022" lon="17.987252382659">
        <ele>80.4</ele>
        <time>2019-10-01T17:11:57Z</time>
      </trkpt>
      <trkpt lat="59.39396989467" lon="17.987038476571">
        <ele>80.6</ele>
        <time>2019-10-01T17:12:07Z</time>
      </trkpt>
      <trkpt lat="59.394023957925" lon="17.987038392752">
        <ele>80.8</ele>
        <time>2019-10-01T17:12:08Z</time>
      </trkpt>
      <trkpt lat="59.394175083582" lon="17.986860947929">
        <ele>81</ele>
        <time>2019-10-01T17:12:11Z</time>
      </trkpt>
      <trkpt lat="59.394744466049" lon="17.98657587951">
        <ele>81.6</ele>
        <time>2019-10-01T17:12:19Z</time>
      </trkpt>
      <trkpt lat="59.395100864437" lon="17.986365326182">
        <ele>81.8</ele>
        <time>2019-10-01T17:12:25Z</time>
      </trkpt>
      <trkpt lat="59.395376628947" lon="17.986204728978">
        <ele>83</ele>
        <time>2019-10-01T17:12:31Z</time>
      </trkpt>
      <trkpt lat="59.395677455338" lon="17.985954277806">
        <ele>84</ele>
        <time>2019-10-01T17:12:38Z</time>
      </trkpt>
      <trkpt lat="59.396228146168" lon="17.985538954661">
        <ele>83.6</ele>
        <time>2019-10-01T17:12:49Z</time>
      </trkpt>
      <trkpt lat="59.396533582604" lon="17.985280456865">
        <ele>82.8</ele>
        <time>2019-10-01T17:12:55Z</time>
      </trkpt>
      <trkpt lat="59.397047560712" lon="17.984714846253">
        <ele>83.6</ele>
        <time>2019-10-01T17:13:06Z</time>
      </trkpt>
      <trkpt lat="59.397452238844" lon="17.984282675489">
        <ele>84</ele>
        <time>2019-10-01T17:13:15Z</time>
      </trkpt>
      <trkpt lat="59.397898575019" lon="17.983901299039">
        <ele>84.8</ele>
        <time>2019-10-01T17:13:25Z</time>
      </trkpt>
      <trkpt lat="59.39812731707" lon="17.983609273643">
        <ele>85</ele>
        <time>2019-10-01T17:13:31Z</time>
      </trkpt>
      <trkpt lat="59.398577760376" lon="17.983009548698">
        <ele>86</ele>
        <time>2019-10-01T17:13:41Z</time>
      </trkpt>
      <trkpt lat="59.399055025762" lon="17.982389707193">
        <ele>86.4</ele>
        <time>2019-10-01T17:13:51Z</time>
      </trkpt>
      <trkpt lat="59.399180586624" lon="17.982205640669">
        <ele>86.6</ele>
        <time>2019-10-01T17:13:54Z</time>
      </trkpt>
      <trkpt lat="59.399556514839" lon="17.981382705727">
        <ele>86.6</ele>
        <time>2019-10-01T17:14:03Z</time>
      </trkpt>
      <trkpt lat="59.39967210124" lon="17.981140049722">
        <ele>87.4</ele>
        <time>2019-10-01T17:14:06Z</time>
      </trkpt>
      <trkpt lat="59.399729852531" lon="17.980899908287">
        <ele>88.6</ele>
        <time>2019-10-01T17:14:08Z</time>
      </trkpt>
      <trkpt lat="59.399796572455" lon="17.980691869529">
        <ele>90</ele>
        <time>2019-10-01T17:14:10Z</time>
      </trkpt>
      <trkpt lat="59.4001699861" lon="17.979942276212">
        <ele>91</ele>
        <time>2019-10-01T17:14:19Z</time>
      </trkpt>
      <trkpt lat="59.400545076125" lon="17.979175667638">
        <ele>91.4</ele>
        <time>2019-10-01T17:14:28Z</time>
      </trkpt>
      <trkpt lat="59.40088915312" lon="17.978337058543">
        <ele>91.6</ele>
        <time>2019-10-01T17:14:38Z</time>
      </trkpt>
      <trkpt lat="59.401007086453" lon="17.978096162737">
        <ele>92</ele>
        <time>2019-10-01T17:14:41Z</time>
      </trkpt>
      <trkpt lat="59.401298273659" lon="17.977458970699">
        <ele>91.8</ele>
        <time>2019-10-01T17:14:49Z</time>
      </trkpt>
      <trkpt lat="59.401703119429" lon="17.976600664139">
        <ele>92.6</ele>
        <time>2019-10-01T17:14:59Z</time>
      </trkpt>
      <trkpt lat="59.401992546436" lon="17.976000352461">
        <ele>91</ele>
        <time>2019-10-01T17:15:06Z</time>
      </trkpt>
      <trkpt lat="59.402385154632" lon="17.97517230456">
        <ele>91.2</ele>
        <time>2019-10-01T17:15:16Z</time>
      </trkpt>
      <trkpt lat="59.402563689102" lon="17.974819175113">
        <ele>92.2</ele>
        <time>2019-10-01T17:15:21Z</time>
      </trkpt>
      <trkpt lat="59.402900222387" lon="17.974118029178">
        <ele>93</ele>
        <time>2019-10-01T17:15:31Z</time>
      </trkpt>
      <trkpt lat="59.402996530418" lon="17.973968244625">
        <ele>93</ele>
        <time>2019-10-01T17:15:33Z</time>
      </trkpt>
      <trkpt lat="59.40305000694" lon="17.973925832211">
        <ele>93.2</ele>
        <time>2019-10-01T17:15:34Z</time>
      </trkpt>
      <trkpt lat="59.403098035227" lon="17.973931280446">
        <ele>93.2</ele>
        <time>2019-10-01T17:15:35Z</time>
      </trkpt>
      <trkpt lat="59.403203647167" lon="17.974007974831">
        <ele>93.2</ele>
        <time>2019-10-01T17:15:37Z</time>
      </trkpt>
      <trkpt lat="59.403735311084" lon="17.974405695986">
        <ele>93.6</ele>
        <time>2019-10-01T17:15:47Z</time>
      </trkpt>
      <trkpt lat="59.404312237261" lon="17.974786904798">
        <ele>91.8</ele>
        <time>2019-10-01T17:15:56Z</time>
      </trkpt>
      <trkpt lat="59.404582888812" lon="17.975111871061">
        <ele>90.8</ele>
        <time>2019-10-01T17:16:00Z</time>
      </trkpt>
      <trkpt lat="59.404637287343" lon="17.97521337587">
        <ele>90.8</ele>
        <time>2019-10-01T17:16:01Z</time>
      </trkpt>
      <trkpt lat="59.404982453985" lon="17.97607838795">
        <ele>91.2</ele>
        <time>2019-10-01T17:16:10Z</time>
      </trkpt>
      <trkpt lat="59.405128466683" lon="17.976393128295">
        <ele>91.8</ele>
        <time>2019-10-01T17:16:13Z</time>
      </trkpt>
      <trkpt lat="59.405185463603" lon="17.976468733033">
        <ele>91.8</ele>
        <time>2019-10-01T17:16:14Z</time>
      </trkpt>
      <trkpt lat="59.405242125247" lon="17.976514162931">
        <ele>92</ele>
        <time>2019-10-01T17:16:15Z</time>
      </trkpt>
      <trkpt lat="59.405416720224" lon="17.976670569185">
        <ele>92.4</ele>
        <time>2019-10-01T17:16:18Z</time>
      </trkpt>
      <trkpt lat="59.405554434841" lon="17.97688388854">
        <ele>92.4</ele>
        <time>2019-10-01T17:16:21Z</time>
      </trkpt>
      <trkpt lat="59.405650659053" lon="17.976902580177">
        <ele>92.4</ele>
        <time>2019-10-01T17:16:23Z</time>
      </trkpt>
      <trkpt lat="59.405757444459" lon="17.97683862628">
        <ele>92.6</ele>
        <time>2019-10-01T17:16:25Z</time>
      </trkpt>
      <trkpt lat="59.405858949268" lon="17.976747598846">
        <ele>93.2</ele>
        <time>2019-10-01T17:16:27Z</time>
      </trkpt>
      <trkpt lat="59.406000351921" lon="17.97658214014">
        <ele>93.4</ele>
        <time>2019-10-01T17:16:30Z</time>
      </trkpt>
      <trkpt lat="59.406082913636" lon="17.976482814625">
        <ele>93.2</ele>
        <time>2019-10-01T17:16:32Z</time>
      </trkpt>
      <trkpt lat="59.406193303259" lon="17.976253318203">
        <ele>93.6</ele>
        <time>2019-10-01T17:16:35Z</time>
      </trkpt>
      <trkpt lat="59.406220125339" lon="17.976156255801">
        <ele>94.4</ele>
        <time>2019-10-01T17:16:36Z</time>
      </trkpt>
      <trkpt lat="59.406271674024" lon="17.976001190651">
        <ele>95.8</ele>
        <time>2019-10-01T17:16:38Z</time>
      </trkpt>
      <trkpt lat="59.406438473834" lon="17.975631129766">
        <ele>97</ele>
        <time>2019-10-01T17:16:45Z</time>
      </trkpt>
      <trkpt lat="59.40686880058" lon="17.975203149952">
        <ele>98.2</ele>
        <time>2019-10-01T17:16:57Z</time>
      </trkpt>
      <trkpt lat="59.407098632278" lon="17.975207089445">
        <ele>99.2</ele>
        <time>2019-10-01T17:17:03Z</time>
      </trkpt>
      <trkpt lat="59.407343299939" lon="17.97511530764">
        <ele>100.2</ele>
        <time>2019-10-01T17:17:09Z</time>
      </trkpt>
      <trkpt lat="59.407842693541" lon="17.974749772981">
        <ele>101.2</ele>
        <time>2019-10-01T17:17:20Z</time>
      </trkpt>
      <trkpt lat="59.408353821803" lon="17.974263371324">
        <ele>101.8</ele>
        <time>2019-10-01T17:17:33Z</time>
      </trkpt>
      <trkpt lat="59.408448369635" lon="17.97411702335">
        <ele>102.2</ele>
        <time>2019-10-01T17:17:36Z</time>
      </trkpt>
      <trkpt lat="59.408545934951" lon="17.973911163886">
        <ele>102.8</ele>
        <time>2019-10-01T17:18:16Z</time>
      </trkpt>
      <trkpt lat="59.408578791999" lon="17.974040161327">
        <ele>102.6</ele>
        <time>2019-10-01T17:18:19Z</time>
      </trkpt>
      <trkpt lat="59.408949020522" lon="17.974593366727">
        <ele>102.6</ele>
        <time>2019-10-01T17:18:29Z</time>
      </trkpt>
      <trkpt lat="59.409041305241" lon="17.974638209892">
        <ele>102.8</ele>
        <time>2019-10-01T17:18:31Z</time>
      </trkpt>
      <trkpt lat="59.409140546937" lon="17.974546595725">
        <ele>101.6</ele>
        <time>2019-10-01T17:18:33Z</time>
      </trkpt>
      <trkpt lat="59.409192766174" lon="17.974478367059">
        <ele>100.8</ele>
        <time>2019-10-01T17:18:34Z</time>
      </trkpt>
      <trkpt lat="59.409276333717" lon="17.974353812025">
        <ele>100.2</ele>
        <time>2019-10-01T17:18:36Z</time>
      </trkpt>
      <trkpt lat="59.409334839379" lon="17.974189275328">
        <ele>100</ele>
        <time>2019-10-01T17:18:38Z</time>
      </trkpt>
      <trkpt lat="59.409419999483" lon="17.974053656186">
        <ele>100.4</ele>
        <time>2019-10-01T17:18:40Z</time>
      </trkpt>
      <trkpt lat="59.409699452029" lon="17.973754673813">
        <ele>99.8</ele>
        <time>2019-10-01T17:18:45Z</time>
      </trkpt>
      <trkpt lat="59.409963314241" lon="17.973635986109">
        <ele>98.6</ele>
        <time>2019-10-01T17:18:49Z</time>
      </trkpt>
      <trkpt lat="59.410170682447" lon="17.973575217334">
        <ele>97.6</ele>
        <time>2019-10-01T17:18:52Z</time>
      </trkpt>
      <trkpt lat="59.410397245204" lon="17.973507156306">
        <ele>96.6</ele>
        <time>2019-10-01T17:18:55Z</time>
      </trkpt>
      <trkpt lat="59.410705699124" lon="17.973441777486">
        <ele>95.4</ele>
        <time>2019-10-01T17:18:59Z</time>
      </trkpt>
      <trkpt lat="59.411242476" lon="17.973351169147">
        <ele>94.2</ele>
        <time>2019-10-01T17:19:07Z</time>
      </trkpt>
      <trkpt lat="59.411788640604" lon="17.973210185589">
        <ele>93.4</ele>
        <time>2019-10-01T17:19:15Z</time>
      </trkpt>
      <trkpt lat="59.41215358853" lon="17.973145058226">
        <ele>93.2</ele>
        <time>2019-10-01T17:19:20Z</time>
      </trkpt>
      <trkpt lat="59.412731688173" lon="17.973038943372">
        <ele>94.4</ele>
        <time>2019-10-01T17:19:29Z</time>
      </trkpt>
      <trkpt lat="59.412978786585" lon="17.973012205111">
        <ele>95.2</ele>
        <time>2019-10-01T17:19:33Z</time>
      </trkpt>
      <trkpt lat="59.413171821742" lon="17.97297457038">
        <ele>96.6</ele>
        <time>2019-10-01T17:19:36Z</time>
      </trkpt>
      <trkpt lat="59.413615475709" lon="17.972879519634">
        <ele>97.8</ele>
        <time>2019-10-01T17:19:44Z</time>
      </trkpt>
      <trkpt lat="59.41408645467" lon="17.972763597957">
        <ele>98.6</ele>
        <time>2019-10-01T17:19:52Z</time>
      </trkpt>
      <trkpt lat="59.41464804197" lon="17.972740463913">
        <ele>97.4</ele>
        <time>2019-10-01T17:20:02Z</time>
      </trkpt>
      <trkpt lat="59.415234355875" lon="17.972707606865">
        <ele>98.4</ele>
        <time>2019-10-01T17:20:11Z</time>
      </trkpt>
      <trkpt lat="59.415357905081" lon="17.972696039843">
        <ele>99.2</ele>
        <time>2019-10-01T17:20:13Z</time>
      </trkpt>
      <trkpt lat="59.415538702664" lon="17.972680700966">
        <ele>100.2</ele>
        <time>2019-10-01T17:20:16Z</time>
      </trkpt>
      <trkpt lat="59.416100709059" lon="17.972572825913">
        <ele>99.6</ele>
        <time>2019-10-01T17:20:25Z</time>
      </trkpt>
      <trkpt lat="59.416235406192" lon="17.972533095707">
        <ele>98.8</ele>
        <time>2019-10-01T17:20:27Z</time>
      </trkpt>
      <trkpt lat="59.416510751607" lon="17.972501244487">
        <ele>97.6</ele>
        <time>2019-10-01T17:20:30Z</time>
      </trkpt>
      <trkpt lat="59.416824318486" lon="17.972465034679">
        <ele>96.4</ele>
        <time>2019-10-01T17:20:33Z</time>
      </trkpt>
      <trkpt lat="59.417130257836" lon="17.972436620038">
        <ele>94.8</ele>
        <time>2019-10-01T17:20:36Z</time>
      </trkpt>
      <trkpt lat="59.417602494082" lon="17.972391693054">
        <ele>93.8</ele>
        <time>2019-10-01T17:20:40Z</time>
      </trkpt>
      <trkpt lat="59.41799074369" lon="17.972363948965">
        <ele>92.2</ele>
        <time>2019-10-01T17:20:44Z</time>
      </trkpt>
      <trkpt lat="59.418217138809" lon="17.972338551808">
        <ele>90.2</ele>
        <time>2019-10-01T17:20:46Z</time>
      </trkpt>
      <trkpt lat="59.418334904504" lon="17.972334360858">
        <ele>89</ele>
        <time>2019-10-01T17:20:47Z</time>
      </trkpt>
      <trkpt lat="59.418445210308" lon="17.972331511012">
        <ele>87.8</ele>
        <time>2019-10-01T17:20:48Z</time>
      </trkpt>
      <trkpt lat="59.418642268777" lon="17.972310304805">
        <ele>86.4</ele>
        <time>2019-10-01T17:20:50Z</time>
      </trkpt>
      <trkpt lat="59.41921869204" lon="17.972161274623">
        <ele>86.8</ele>
        <time>2019-10-01T17:20:57Z</time>
      </trkpt>
      <trkpt lat="59.419342911798" lon="17.972119868037">
        <ele>87.2</ele>
        <time>2019-10-01T17:20:59Z</time>
      </trkpt>
      <trkpt lat="59.419439722743" lon="17.97214643866">
        <ele>87.4</ele>
        <time>2019-10-01T17:21:01Z</time>
      </trkpt>
      <trkpt lat="59.419550196185" lon="17.9722017592">
        <ele>87</ele>
        <time>2019-10-01T17:21:04Z</time>
      </trkpt>
      <trkpt lat="59.419633847547" lon="17.972143672633">
        <ele>86.8</ele>
        <time>2019-10-01T17:21:06Z</time>
      </trkpt>
      <trkpt lat="59.419710290475" lon="17.972019536694">
        <ele>86.4</ele>
        <time>2019-10-01T17:21:08Z</time>
      </trkpt>
      <trkpt lat="59.420033245082" lon="17.971098952617">
        <ele>87.2</ele>
        <time>2019-10-01T17:21:19Z</time>
      </trkpt>
      <trkpt lat="59.420054283651" lon="17.971011613219">
        <ele>87.6</ele>
        <time>2019-10-01T17:21:20Z</time>
      </trkpt>
      <trkpt lat="59.420117315539" lon="17.970716570339">
        <ele>88</ele>
        <time>2019-10-01T17:21:23Z</time>
      </trkpt>
      <trkpt lat="59.420186466214" lon="17.970536862403">
        <ele>88</ele>
        <time>2019-10-01T17:21:25Z</time>
      </trkpt>
      <trkpt lat="59.420483269293" lon="17.969915093061">
        <ele>87.6</ele>
        <time>2019-10-01T17:21:33Z</time>
      </trkpt>
      <trkpt lat="59.420582259532" lon="17.969590042979">
        <ele>88.6</ele>
        <time>2019-10-01T17:21:37Z</time>
      </trkpt>
      <trkpt lat="59.420645878153" lon="17.969329784984">
        <ele>89.6</ele>
        <time>2019-10-01T17:21:40Z</time>
      </trkpt>
      <trkpt lat="59.420681752685" lon="17.969034993561">
        <ele>90.8</ele>
        <time>2019-10-01T17:21:43Z</time>
      </trkpt>
      <trkpt lat="59.420763224753" lon="17.968731401143">
        <ele>91.6</ele>
        <time>2019-10-01T17:21:47Z</time>
      </trkpt>
      <trkpt lat="59.421115851286" lon="17.968177273734">
        <ele>90.4</ele>
        <time>2019-10-01T17:21:56Z</time>
      </trkpt>
      <trkpt lat="59.421340737663" lon="17.967902850328">
        <ele>90</ele>
        <time>2019-10-01T17:22:01Z</time>
      </trkpt>
      <trkpt lat="59.421437213332" lon="17.967706797687">
        <ele>90.4</ele>
        <time>2019-10-01T17:22:07Z</time>
      </trkpt>
    </trkseg>
  </trk>
</gpx>